Middletown, Ohio
Current Conditions -  °F | °C
As of 11:15 PM on Sunday 25 Jan 2015 (Local Time) from KMWO Reporting Station
Light Snow Light Snow  
Wind Chill: 20°   Ceiling: 1000
Heat Index: 29°   Visibility: 1.5mi
Dew Point: 25°   Wind: 12mph
Humidity: 85%   Direction: 30°NNE
Pressure: 29.77"   Gusts: 18mph
Location:  39.51°N, 84.4°W
Report Text: KMWO 260415Z AUTO 03010G16KT 1 1/2SM -SN BKN010 OVC021 M01/M04 A2977 RMK AO2 T10151037
Loading
Personal Weather Stations






























Interactive Weather Map New forecast layout! Learn more

10-Day Weather Forecast

Advertisements
Track Severe Weather on mobile